MMMD/MID METAR and TAF weather

Enter ICAO airport designator
Station Type Date Time Source
MMMD METAR 2020/01/22 17:45 UTC NOAA

MMMD 221745Z 05008KT 7SM BKN020 25/13 A3011 RMK SLP200 57015 991 8/100


Station Type Date Time Source
MMMD Decoded METAR 2020/01/22 17:45 UTC NOAA

Merida / lic Manuel Crecencio, Mexico (MMMD) 20-56N 089-39W 11M
Jan 22, 2020 - 12:45 PM EST / 2020.01.22 1745 UTC
Wind: from the NE (050 degrees) at 9 MPH (8 KT):0
Visibility: 7 mile(s):0
Sky conditions: mostly cloudy
Temperature: 77 F (25 C)
Dew Point: 55 F (13 C)
Relative Humidity: 47%
Pressure (altimeter): 30.11 in. Hg (1019 hPa)
Pressure tendency: 0.04 inches (1.5 hPa) lower than three hours ago
ob: MMMD 221745Z 05008KT 7SM BKN020 25/13 A3011 RMK SLP200 57015 991 8/100
cycle: 18

Station Type Date Time Source
MMMD TAF 2020/01/22 18:09 UTC NOAA

TAF MMMD 221702Z 2218/2324 08010KT P6SM BKN025 TX27/2221Z TN14/2312Z
FM230400 09012KT P6SM BKN020
FM231800 13010KT P6SM BKN030

Example: see airport list